sensor_id;sensor_type;location;lat;lon;timestamp;temperature;humidity
11140;DHT22;5624;49.388;11.350;2022-11-15T00:01:47;6.20;89.20
11140;DHT22;5624;49.388;11.350;2022-11-15T00:04:13;6.20;89.30
11140;DHT22;5624;49.388;11.350;2022-11-15T00:06:38;6.20;89.40
11140;DHT22;5624;49.388;11.350;2022-11-15T00:09:04;6.20;89.30
11140;DHT22;5624;49.388;11.350;2022-11-15T00:11:29;6.10;89.60
11140;DHT22;5624;49.388;11.350;2022-11-15T00:13:56;6.20;89.60
11140;DHT22;5624;49.388;11.350;2022-11-15T00:16:22;6.10;89.50
11140;DHT22;5624;49.388;11.350;2022-11-15T00:18:48;6.10;89.70
11140;DHT22;5624;49.388;11.350;2022-11-15T00:21:14;6.10;89.50
11140;DHT22;5624;49.388;11.350;2022-11-15T00:23:40;6.10;89.60
11140;DHT22;5624;49.388;11.350;2022-11-15T00:26:07;6.00;90.10
11140;DHT22;5624;49.388;11.350;2022-11-15T00:28:33;6.00;90.10
11140;DHT22;5624;49.388;11.350;2022-11-15T00:31:03;5.90;89.90
11140;DHT22;5624;49.388;11.350;2022-11-15T00:33:28;5.90;90.30
11140;DHT22;5624;49.388;11.350;2022-11-15T00:36:06;5.90;90.40
11140;DHT22;5624;49.388;11.350;2022-11-15T00:38:33;5.90;90.60
11140;DHT22;5624;49.388;11.350;2022-11-15T00:40:59;5.90;90.60
11140;DHT22;5624;49.388;11.350;2022-11-15T00:43:25;5.90;90.70
11140;DHT22;5624;49.388;11.350;2022-11-15T00:45:51;6.00;90.50
11140;DHT22;5624;49.388;11.350;2022-11-15T00:48:17;6.10;89.80
11140;DHT22;5624;49.388;11.350;2022-11-15T00:50:43;6.20;89.50
11140;DHT22;5624;49.388;11.350;2022-11-15T00:53:08;6.30;88.90
11140;DHT22;5624;49.388;11.350;2022-11-15T00:55:34;6.40;88.50
11140;DHT22;5624;49.388;11.350;2022-11-15T00:58:00;6.40;88.00
11140;DHT22;5624;49.388;11.350;2022-11-15T01:00:25;6.50;87.60
11140;DHT22;5624;49.388;11.350;2022-11-15T01:02:51;6.50;87.40
11140;DHT22;5624;49.388;11.350;2022-11-15T01:05:17;6.60;87.30
11140;DHT22;5624;49.388;11.350;2022-11-15T01:07:42;6.60;87.00
11140;DHT22;5624;49.388;11.350;2022-11-15T01:10:08;6.60;86.80
11140;DHT22;5624;49.388;11.350;2022-11-15T01:12:34;6.60;86.80
11140;DHT22;5624;49.388;11.350;2022-11-15T01:14:59;6.70;86.50
11140;DHT22;5624;49.388;11.350;2022-11-15T01:17:28;6.70;86.20
11140;DHT22;5624;49.388;11.350;2022-11-15T01:19:53;6.70;86.70
11140;DHT22;5624;49.388;11.350;2022-11-15T01:22:19;6.70;85.80
11140;DHT22;5624;49.388;11.350;2022-11-15T01:24:44;6.70;85.80
11140;DHT22;5624;49.388;11.350;2022-11-15T01:27:10;6.70;85.30
11140;DHT22;5624;49.388;11.350;2022-11-15T01:29:36;6.80;84.70
11140;DHT22;5624;49.388;11.350;2022-11-15T01:32:01;6.80;83.90
11140;DHT22;5624;49.388;11.350;2022-11-15T01:34:27;6.90;83.40
11140;DHT22;5624;49.388;11.350;2022-11-15T01:36:53;7.00;82.60
11140;DHT22;5624;49.388;11.350;2022-11-15T01:39:18;7.00;82.30
11140;DHT22;5624;49.388;11.350;2022-11-15T01:41:44;7.00;81.90
11140;DHT22;5624;49.388;11.350;2022-11-15T01:46:57;7.00;81.50
11140;DHT22;5624;49.388;11.350;2022-11-15T01:49:25;7.00;81.50
11140;DHT22;5624;49.388;11.350;2022-11-15T01:51:53;7.00;81.50
11140;DHT22;5624;49.388;11.350;2022-11-15T01:54:20;6.90;81.60
11140;DHT22;5624;49.388;11.350;2022-11-15T01:56:54;6.90;81.70
11140;DHT22;5624;49.388;11.350;2022-11-15T01:59:21;6.80;81.80
11140;DHT22;5624;49.388;11.350;2022-11-15T02:01:47;6.90;81.50
11140;DHT22;5624;49.388;11.350;2022-11-15T02:04:16;6.90;81.40
11140;DHT22;5624;49.388;11.350;2022-11-15T02:06:43;6.80;81.40
11140;DHT22;5624;49.388;11.350;2022-11-15T02:09:10;6.80;81.50
11140;DHT22;5624;49.388;11.350;2022-11-15T02:11:36;6.70;81.60
11140;DHT22;5624;49.388;11.350;2022-11-15T02:14:03;6.60;81.90
11140;DHT22;5624;49.388;11.350;2022-11-15T02:21:59;6.60;81.70
11140;DHT22;5624;49.388;11.350;2022-11-15T02:30:41;6.50;82.20
11140;DHT22;5624;49.388;11.350;2022-11-15T02:33:14;6.40;82.10
11140;DHT22;5624;49.388;11.350;2022-11-15T02:36:07;6.40;82.30
11140;DHT22;5624;49.388;11.350;2022-11-15T02:38:58;6.40;82.40
11140;DHT22;5624;49.388;11.350;2022-11-15T02:41:31;6.40;82.30
11140;DHT22;5624;49.388;11.350;2022-11-15T02:44:06;6.40;82.30
11140;DHT22;5624;49.388;11.350;2022-11-15T02:49:25;6.30;82.60
11140;DHT22;5624;49.388;11.350;2022-11-15T02:51:53;6.40;82.60
11140;DHT22;5624;49.388;11.350;2022-11-15T02:54:23;6.40;82.30
11140;DHT22;5624;49.388;11.350;2022-11-15T02:56:53;6.30;82.40
11140;DHT22;5624;49.388;11.350;2022-11-15T03:02:31;6.30;82.60
11140;DHT22;5624;49.388;11.350;2022-11-15T03:16:02;6.40;82.20
11140;DHT22;5624;49.388;11.350;2022-11-15T03:18:56;6.40;82.00
11140;DHT22;5624;49.388;11.350;2022-11-15T03:21:24;6.40;81.70
11140;DHT22;5624;49.388;11.350;2022-11-15T03:23:51;6.40;81.70
11140;DHT22;5624;49.388;11.350;2022-11-15T03:26:19;6.40;81.50
11140;DHT22;5624;49.388;11.350;2022-11-15T03:28:52;6.40;81.70
11140;DHT22;5624;49.388;11.350;2022-11-15T03:31:19;6.40;81.50
11140;DHT22;5624;49.388;11.350;2022-11-15T03:34:07;6.40;81.20
11140;DHT22;5624;49.388;11.350;2022-11-15T03:36:35;6.50;80.60
11140;DHT22;5624;49.388;11.350;2022-11-15T03:39:05;6.50;80.40
11140;DHT22;5624;49.388;11.350;2022-11-15T03:41:46;6.50;80.50
11140;DHT22;5624;49.388;11.350;2022-11-15T03:47:03;6.40;80.80
11140;DHT22;5624;49.388;11.350;2022-11-15T03:49:34;6.30;81.10
11140;DHT22;5624;49.388;11.350;2022-11-15T03:52:01;6.30;81.40
11140;DHT22;5624;49.388;11.350;2022-11-15T03:54:28;6.30;81.40
11140;DHT22;5624;49.388;11.350;2022-11-15T03:56:53;6.20;81.50
11140;DHT22;5624;49.388;11.350;2022-11-15T03:59:19;6.20;81.70
11140;DHT22;5624;49.388;11.350;2022-11-15T04:01:45;6.10;81.70
11140;DHT22;5624;49.388;11.350;2022-11-15T04:04:10;6.10;82.10
11140;DHT22;5624;49.388;11.350;2022-11-15T04:06:36;6.10;82.10
11140;DHT22;5624;49.388;11.350;2022-11-15T04:09:02;6.00;82.40
11140;DHT22;5624;49.388;11.350;2022-11-15T04:11:27;5.90;82.50
11140;DHT22;5624;49.388;11.350;2022-11-15T04:13:53;5.90;82.50
11140;DHT22;5624;49.388;11.350;2022-11-15T04:16:19;5.90;82.80
11140;DHT22;5624;49.388;11.350;2022-11-15T04:18:44;5.80;83.00
11140;DHT22;5624;49.388;11.350;2022-11-15T04:21:10;5.80;83.10
11140;DHT22;5624;49.388;11.350;2022-11-15T04:23:54;5.70;83.50
11140;DHT22;5624;49.388;11.350;2022-11-15T04:26:38;5.70;83.40
11140;DHT22;5624;49.388;11.350;2022-11-15T04:29:03;5.70;83.40
11140;DHT22;5624;49.388;11.350;2022-11-15T04:31:47;5.80;83.20
11140;DHT22;5624;49.388;11.350;2022-11-15T04:34:13;5.90;82.90
11140;DHT22;5624;49.388;11.350;2022-11-15T04:36:38;5.80;82.50
11140;DHT22;5624;49.388;11.350;2022-11-15T04:39:23;5.90;82.50
11140;DHT22;5624;49.388;11.350;2022-11-15T04:41:48;5.90;82.30
11140;DHT22;5624;49.388;11.350;2022-11-15T04:44:14;5.90;82.20
11140;DHT22;5624;49.388;11.350;2022-11-15T04:46:39;5.90;82.10
11140;DHT22;5624;49.388;11.350;2022-11-15T04:49:05;6.00;81.80
11140;DHT22;5624;49.388;11.350;2022-11-15T04:51:31;6.00;81.50
11140;DHT22;5624;49.388;11.350;2022-11-15T04:53:56;6.10;81.10
11140;DHT22;5624;49.388;11.350;2022-11-15T04:56:22;6.00;81.20
11140;DHT22;5624;49.388;11.350;2022-11-15T04:58:51;6.00;81.20
11140;DHT22;5624;49.388;11.350;2022-11-15T05:01:16;6.10;81.10
11140;DHT22;5624;49.388;11.350;2022-11-15T05:03:42;6.00;81.30
11140;DHT22;5624;49.388;11.350;2022-11-15T05:06:27;5.90;81.50
11140;DHT22;5624;49.388;11.350;2022-11-15T05:08:52;5.80;82.00
11140;DHT22;5624;49.388;11.350;2022-11-15T05:11:18;5.70;82.40
11140;DHT22;5624;49.388;11.350;2022-11-15T05:13:44;5.70;82.60
11140;DHT22;5624;49.388;11.350;2022-11-15T05:16:09;5.80;82.40
11140;DHT22;5624;49.388;11.350;2022-11-15T05:18:35;5.70;82.10
11140;DHT22;5624;49.388;11.350;2022-11-15T05:21:05;5.70;82.90
11140;DHT22;5624;49.388;11.350;2022-11-15T05:23:31;5.70;82.70
11140;DHT22;5624;49.388;11.350;2022-11-15T05:26:00;5.70;82.80
11140;DHT22;5624;49.388;11.350;2022-11-15T05:28:26;5.70;82.40
11140;DHT22;5624;49.388;11.350;2022-11-15T05:30:52;5.90;81.70
11140;DHT22;5624;49.388;11.350;2022-11-15T05:33:18;5.90;81.70
11140;DHT22;5624;49.388;11.350;2022-11-15T05:35:48;5.90;81.40
11140;DHT22;5624;49.388;11.350;2022-11-15T05:38:16;6.00;81.00
11140;DHT22;5624;49.388;11.350;2022-11-15T05:40:41;6.00;80.90
11140;DHT22;5624;49.388;11.350;2022-11-15T05:43:08;6.10;80.40
11140;DHT22;5624;49.388;11.350;2022-11-15T05:45:35;6.10;80.40
11140;DHT22;5624;49.388;11.350;2022-11-15T05:48:05;6.10;80.60
11140;DHT22;5624;49.388;11.350;2022-11-15T05:50:33;6.00;80.70
11140;DHT22;5624;49.388;11.350;2022-11-15T05:53:00;6.00;80.90
11140;DHT22;5624;49.388;11.350;2022-11-15T05:55:26;6.00;80.80
11140;DHT22;5624;49.388;11.350;2022-11-15T05:57:52;6.00;81.00
11140;DHT22;5624;49.388;11.350;2022-11-15T06:00:18;6.00;81.00
11140;DHT22;5624;49.388;11.350;2022-11-15T06:02:43;5.90;81.10
11140;DHT22;5624;49.388;11.350;2022-11-15T06:05:09;5.90;81.20
11140;DHT22;5624;49.388;11.350;2022-11-15T06:07:34;5.90;81.30
11140;DHT22;5624;49.388;11.350;2022-11-15T06:10:00;5.80;81.60
11140;DHT22;5624;49.388;11.350;2022-11-15T06:12:26;5.90;81.40
11140;DHT22;5624;49.388;11.350;2022-11-15T06:14:51;5.90;81.20
11140;DHT22;5624;49.388;11.350;2022-11-15T06:17:17;5.90;81.20
11140;DHT22;5624;49.388;11.350;2022-11-15T06:19:44;5.90;81.20
11140;DHT22;5624;49.388;11.350;2022-11-15T06:22:09;5.80;81.40
11140;DHT22;5624;49.388;11.350;2022-11-15T06:24:35;5.80;81.50
11140;DHT22;5624;49.388;11.350;2022-11-15T06:27:01;5.80;81.60
11140;DHT22;5624;49.388;11.350;2022-11-15T06:29:26;5.70;82.10
11140;DHT22;5624;49.388;11.350;2022-11-15T06:31:52;5.60;82.80
11140;DHT22;5624;49.388;11.350;2022-11-15T06:34:18;5.70;83.00
11140;DHT22;5624;49.388;11.350;2022-11-15T06:36:44;5.70;82.90
11140;DHT22;5624;49.388;11.350;2022-11-15T06:39:09;5.70;82.60
11140;DHT22;5624;49.388;11.350;2022-11-15T06:41:35;5.70;82.70
11140;DHT22;5624;49.388;11.350;2022-11-15T06:44:01;5.60;82.90
11140;DHT22;5624;49.388;11.350;2022-11-15T06:46:26;5.60;83.10
11140;DHT22;5624;49.388;11.350;2022-11-15T06:48:52;5.60;83.00
11140;DHT22;5624;49.388;11.350;2022-11-15T06:51:18;5.60;83.20
11140;DHT22;5624;49.388;11.350;2022-11-15T06:53:44;5.50;83.80
11140;DHT22;5624;49.388;11.350;2022-11-15T06:56:09;5.60;83.40
11140;DHT22;5624;49.388;11.350;2022-11-15T06:58:35;5.50;83.90
11140;DHT22;5624;49.388;11.350;2022-11-15T07:01:08;5.60;83.70
11140;DHT22;5624;49.388;11.350;2022-11-15T07:03:37;5.60;83.40
11140;DHT22;5624;49.388;11.350;2022-11-15T07:06:03;5.70;83.20
11140;DHT22;5624;49.388;11.350;2022-11-15T07:08:30;5.70;83.00
11140;DHT22;5624;49.388;11.350;2022-11-15T07:11:07;5.70;82.80
11140;DHT22;5624;49.388;11.350;2022-11-15T07:13:33;5.80;82.90
11140;DHT22;5624;49.388;11.350;2022-11-15T07:16:07;5.80;82.90
11140;DHT22;5624;49.388;11.350;2022-11-15T07:18:35;5.90;82.70
11140;DHT22;5624;49.388;11.350;2022-11-15T07:21:02;6.00;82.00
11140;DHT22;5624;49.388;11.350;2022-11-15T07:23:28;6.10;81.40
11140;DHT22;5624;49.388;11.350;2022-11-15T07:25:56;6.20;81.20
11140;DHT22;5624;49.388;11.350;2022-11-15T07:28:22;6.30;80.70
11140;DHT22;5624;49.388;11.350;2022-11-15T07:30:48;6.30;80.60
11140;DHT22;5624;49.388;11.350;2022-11-15T07:33:13;6.30;80.40
11140;DHT22;5624;49.388;11.350;2022-11-15T07:35:39;6.30;80.40
11140;DHT22;5624;49.388;11.350;2022-11-15T07:38:05;6.40;80.40
11140;DHT22;5624;49.388;11.350;2022-11-15T07:40:31;6.50;80.30
11140;DHT22;5624;49.388;11.350;2022-11-15T07:43:05;6.50;79.70
11140;DHT22;5624;49.388;11.350;2022-11-15T07:45:31;6.70;79.30
11140;DHT22;5624;49.388;11.350;2022-11-15T07:47:59;6.80;79.10
11140;DHT22;5624;49.388;11.350;2022-11-15T07:50:26;7.00;78.60
11140;DHT22;5624;49.388;11.350;2022-11-15T07:52:56;7.10;77.80
11140;DHT22;5624;49.388;11.350;2022-11-15T07:55:23;7.20;77.60
11140;DHT22;5624;49.388;11.350;2022-11-15T07:57:49;7.30;77.40
11140;DHT22;5624;49.388;11.350;2022-11-15T08:00:15;7.40;76.60
11140;DHT22;5624;49.388;11.350;2022-11-15T08:02:42;7.50;76.30
11140;DHT22;5624;49.388;11.350;2022-11-15T08:05:08;7.50;76.00
11140;DHT22;5624;49.388;11.350;2022-11-15T08:07:33;7.70;75.40
11140;DHT22;5624;49.388;11.350;2022-11-15T08:09:59;7.70;75.20
11140;DHT22;5624;49.388;11.350;2022-11-15T08:12:27;7.80;75.10
11140;DHT22;5624;49.388;11.350;2022-11-15T08:14:54;7.80;74.80
11140;DHT22;5624;49.388;11.350;2022-11-15T08:17:20;7.80;74.90
11140;DHT22;5624;49.388;11.350;2022-11-15T08:19:46;8.00;74.90
11140;DHT22;5624;49.388;11.350;2022-11-15T08:22:11;8.10;73.80
11140;DHT22;5624;49.388;11.350;2022-11-15T08:24:37;8.30;73.20
11140;DHT22;5624;49.388;11.350;2022-11-15T08:27:03;8.40;73.90
11140;DHT22;5624;49.388;11.350;2022-11-15T08:29:28;8.60;72.10
11140;DHT22;5624;49.388;11.350;2022-11-15T08:31:55;8.70;72.00
11140;DHT22;5624;49.388;11.350;2022-11-15T08:34:21;9.00;70.70
11140;DHT22;5624;49.388;11.350;2022-11-15T08:36:47;9.10;69.80
11140;DHT22;5624;49.388;11.350;2022-11-15T08:39:13;9.20;69.30
11140;DHT22;5624;49.388;11.350;2022-11-15T08:41:39;9.30;68.70
11140;DHT22;5624;49.388;11.350;2022-11-15T08:44:05;9.50;67.90
11140;DHT22;5624;49.388;11.350;2022-11-15T08:46:30;9.50;67.50
11140;DHT22;5624;49.388;11.350;2022-11-15T08:48:56;9.70;66.60
11140;DHT22;5624;49.388;11.350;2022-11-15T08:51:22;9.80;66.60
11140;DHT22;5624;49.388;11.350;2022-11-15T08:53:47;9.80;66.50
11140;DHT22;5624;49.388;11.350;2022-11-15T08:56:14;9.90;66.40
11140;DHT22;5624;49.388;11.350;2022-11-15T08:58:40;10.00;65.60
11140;DHT22;5624;49.388;11.350;2022-11-15T09:01:13;10.20;65.10
11140;DHT22;5624;49.388;11.350;2022-11-15T09:03:40;10.50;63.40
11140;DHT22;5624;49.388;11.350;2022-11-15T09:06:06;10.70;63.10
11140;DHT22;5624;49.388;11.350;2022-11-15T09:08:32;10.90;61.30
11140;DHT22;5624;49.388;11.350;2022-11-15T09:10:57;10.90;62.30
11140;DHT22;5624;49.388;11.350;2022-11-15T09:13:23;11.20;60.70
11140;DHT22;5624;49.388;11.350;2022-11-15T09:15:49;11.30;60.30
11140;DHT22;5624;49.388;11.350;2022-11-15T09:18:14;11.40;60.00
11140;DHT22;5624;49.388;11.350;2022-11-15T09:20:40;11.60;59.10
11140;DHT22;5624;49.388;11.350;2022-11-15T09:23:06;11.60;58.90
11140;DHT22;5624;49.388;11.350;2022-11-15T09:25:32;11.60;59.30
11140;DHT22;5624;49.388;11.350;2022-11-15T09:27:58;11.80;59.40
11140;DHT22;5624;49.388;11.350;2022-11-15T09:30:25;12.10;58.10
11140;DHT22;5624;49.388;11.350;2022-11-15T09:32:50;12.10;58.00
11140;DHT22;5624;49.388;11.350;2022-11-15T09:35:16;12.20;57.50
11140;DHT22;5624;49.388;11.350;2022-11-15T09:37:42;12.30;57.20
11140;DHT22;5624;49.388;11.350;2022-11-15T09:40:13;12.30;57.60
11140;DHT22;5624;49.388;11.350;2022-11-15T09:45:42;12.70;55.90
11140;DHT22;5624;49.388;11.350;2022-11-15T09:50:50;13.00;56.50
11140;DHT22;5624;49.388;11.350;2022-11-15T09:53:36;12.90;56.50
11140;DHT22;5624;49.388;11.350;2022-11-15T09:56:21;13.20;55.30
11140;DHT22;5624;49.388;11.350;2022-11-15T09:59:26;13.20;55.60
11140;DHT22;5624;49.388;11.350;2022-11-15T10:02:19;13.30;56.00
11140;DHT22;5624;49.388;11.350;2022-11-15T10:04:38;13.50;55.80
11140;DHT22;5624;49.388;11.350;2022-11-15T10:12:50;13.70;54.60
11140;DHT22;5624;49.388;11.350;2022-11-15T10:15:18;13.70;54.20
11140;DHT22;5624;49.388;11.350;2022-11-15T10:20:28;13.70;53.90
11140;DHT22;5624;49.388;11.350;2022-11-15T10:22:59;13.70;54.10
11140;DHT22;5624;49.388;11.350;2022-11-15T10:25:30;13.70;54.50
11140;DHT22;5624;49.388;11.350;2022-11-15T10:30:45;13.60;55.30
11140;DHT22;5624;49.388;11.350;2022-11-15T10:38:51;14.00;54.10
11140;DHT22;5624;49.388;11.350;2022-11-15T10:46:44;14.10;52.80
11140;DHT22;5624;49.388;11.350;2022-11-15T10:49:21;14.20;53.00
11140;DHT22;5624;49.388;11.350;2022-11-15T10:51:53;14.30;51.80
11140;DHT22;5624;49.388;11.350;2022-11-15T10:54:52;14.20;52.20
11140;DHT22;5624;49.388;11.350;2022-11-15T10:57:23;14.10;53.50
11140;DHT22;5624;49.388;11.350;2022-11-15T10:59:56;14.20;53.20
11140;DHT22;5624;49.388;11.350;2022-11-15T11:04:58;14.00;52.90
11140;DHT22;5624;49.388;11.350;2022-11-15T11:07:27;13.90;54.30
11140;DHT22;5624;49.388;11.350;2022-11-15T11:10:22;13.70;54.80
11140;DHT22;5624;49.388;11.350;2022-11-15T11:12:46;13.70;54.40
11140;DHT22;5624;49.388;11.350;2022-11-15T11:15:14;13.60;55.30
11140;DHT22;5624;49.388;11.350;2022-11-15T11:18:01;13.60;55.50
11140;DHT22;5624;49.388;11.350;2022-11-15T11:20:51;13.50;55.40
11140;DHT22;5624;49.388;11.350;2022-11-15T11:26:10;13.50;56.80
11140;DHT22;5624;49.388;11.350;2022-11-15T11:31:32;13.50;56.20
11140;DHT22;5624;49.388;11.350;2022-11-15T11:37:31;13.60;56.00
11140;DHT22;5624;49.388;11.350;2022-11-15T11:42:47;13.80;55.00
11140;DHT22;5624;49.388;11.350;2022-11-15T11:48:14;13.70;55.70
11140;DHT22;5624;49.388;11.350;2022-11-15T11:50:41;13.70;56.00
11140;DHT22;5624;49.388;11.350;2022-11-15T11:53:31;13.70;55.90
11140;DHT22;5624;49.388;11.350;2022-11-15T11:56:14;13.70;55.10
11140;DHT22;5624;49.388;11.350;2022-11-15T11:58:44;13.70;55.00
11140;DHT22;5624;49.388;11.350;2022-11-15T12:01:16;13.70;55.60
11140;DHT22;5624;49.388;11.350;2022-11-15T12:06:42;13.70;54.90
11140;DHT22;5624;49.388;11.350;2022-11-15T12:09:41;13.70;54.40
11140;DHT22;5624;49.388;11.350;2022-11-15T12:12:43;13.70;54.70
11140;DHT22;5624;49.388;11.350;2022-11-15T12:17:36;13.60;54.90
11140;DHT22;5624;49.388;11.350;2022-11-15T12:20:21;13.60;54.90
11140;DHT22;5624;49.388;11.350;2022-11-15T12:25:43;13.70;55.10
11140;DHT22;5624;49.388;11.350;2022-11-15T12:30:54;13.80;55.50
11140;DHT22;5624;49.388;11.350;2022-11-15T12:33:32;13.80;55.80
11140;DHT22;5624;49.388;11.350;2022-11-15T12:36:02;13.90;55.00
11140;DHT22;5624;49.388;11.350;2022-11-15T12:39:10;13.90;55.40
11140;DHT22;5624;49.388;11.350;2022-11-15T12:41:41;14.00;54.90
11140;DHT22;5624;49.388;11.350;2022-11-15T12:59:56;14.30;54.30
11140;DHT22;5624;49.388;11.350;2022-11-15T13:02:31;14.50;54.00
11140;DHT22;5624;49.388;11.350;2022-11-15T13:17:49;14.40;53.60
11140;DHT22;5624;49.388;11.350;2022-11-15T13:22:42;14.40;54.30
11140;DHT22;5624;49.388;11.350;2022-11-15T13:27:55;14.30;55.00
11140;DHT22;5624;49.388;11.350;2022-11-15T13:30:25;14.40;55.30
11140;DHT22;5624;49.388;11.350;2022-11-15T13:32:51;14.40;54.60
11140;DHT22;5624;49.388;11.350;2022-11-15T13:35:25;14.50;55.20
11140;DHT22;5624;49.388;11.350;2022-11-15T13:37:53;14.50;54.00
11140;DHT22;5624;49.388;11.350;2022-11-15T13:40:23;14.60;54.10
11140;DHT22;5624;49.388;11.350;2022-11-15T13:42:50;14.60;54.60
11140;DHT22;5624;49.388;11.350;2022-11-15T13:45:18;14.60;54.50
11140;DHT22;5624;49.388;11.350;2022-11-15T13:47:44;14.70;54.80
11140;DHT22;5624;49.388;11.350;2022-11-15T13:50:11;14.70;54.70
11140;DHT22;5624;49.388;11.350;2022-11-15T13:52:40;14.60;54.60
11140;DHT22;5624;49.388;11.350;2022-11-15T13:55:22;14.50;55.40
11140;DHT22;5624;49.388;11.350;2022-11-15T13:57:56;14.40;55.50
11140;DHT22;5624;49.388;11.350;2022-11-15T14:00:41;14.20;56.00
11140;DHT22;5624;49.388;11.350;2022-11-15T14:03:21;14.00;56.20
11140;DHT22;5624;49.388;11.350;2022-11-15T14:08:34;13.60;58.10
11140;DHT22;5624;49.388;11.350;2022-11-15T14:11:13;13.50;57.60
11140;DHT22;5624;49.388;11.350;2022-11-15T14:13:40;13.30;58.70
11140;DHT22;5624;49.388;11.350;2022-11-15T14:16:18;13.20;59.60
11140;DHT22;5624;49.388;11.350;2022-11-15T14:18:49;13.10;58.80
11140;DHT22;5624;49.388;11.350;2022-11-15T14:21:16;13.10;58.70
11140;DHT22;5624;49.388;11.350;2022-11-15T14:23:44;12.90;59.10
11140;DHT22;5624;49.388;11.350;2022-11-15T14:26:28;12.80;59.10
11140;DHT22;5624;49.388;11.350;2022-11-15T14:28:54;12.80;58.40
11140;DHT22;5624;49.388;11.350;2022-11-15T14:31:20;12.80;59.00
11140;DHT22;5624;49.388;11.350;2022-11-15T14:33:46;12.50;59.00
11140;DHT22;5624;49.388;11.350;2022-11-15T14:36:13;12.50;59.10
11140;DHT22;5624;49.388;11.350;2022-11-15T14:38:39;12.40;60.40
11140;DHT22;5624;49.388;11.350;2022-11-15T14:41:04;12.30;60.70
11140;DHT22;5624;49.388;11.350;2022-11-15T14:43:31;12.20;61.10
11140;DHT22;5624;49.388;11.350;2022-11-15T14:45:57;12.20;60.50
11140;DHT22;5624;49.388;11.350;2022-11-15T14:48:22;12.20;60.40
11140;DHT22;5624;49.388;11.350;2022-11-15T14:50:48;12.10;61.10
11140;DHT22;5624;49.388;11.350;2022-11-15T14:53:16;11.90;61.90
11140;DHT22;5624;49.388;11.350;2022-11-15T14:55:42;11.80;62.50
11140;DHT22;5624;49.388;11.350;2022-11-15T14:58:08;11.70;62.50
11140;DHT22;5624;49.388;11.350;2022-11-15T15:00:36;11.60;63.20
11140;DHT22;5624;49.388;11.350;2022-11-15T15:03:02;11.50;63.70
11140;DHT22;5624;49.388;11.350;2022-11-15T15:05:38;11.40;64.00
11140;DHT22;5624;49.388;11.350;2022-11-15T15:08:05;11.30;65.10
11140;DHT22;5624;49.388;11.350;2022-11-15T15:10:42;11.20;65.10
11140;DHT22;5624;49.388;11.350;2022-11-15T15:13:25;11.10;65.70
11140;DHT22;5624;49.388;11.350;2022-11-15T15:15:52;10.90;66.40
11140;DHT22;5624;49.388;11.350;2022-11-15T15:18:18;10.80;66.70
11140;DHT22;5624;49.388;11.350;2022-11-15T15:20:45;10.60;67.90
11140;DHT22;5624;49.388;11.350;2022-11-15T15:23:17;10.50;69.00
11140;DHT22;5624;49.388;11.350;2022-11-15T15:25:43;10.30;69.80
11140;DHT22;5624;49.388;11.350;2022-11-15T15:28:11;10.10;70.70
11140;DHT22;5624;49.388;11.350;2022-11-15T15:30:36;10.10;70.80
11140;DHT22;5624;49.388;11.350;2022-11-15T15:33:02;10.10;70.70
11140;DHT22;5624;49.388;11.350;2022-11-15T15:35:30;10.00;71.00
11140;DHT22;5624;49.388;11.350;2022-11-15T15:37:57;9.80;71.60
11140;DHT22;5624;49.388;11.350;2022-11-15T15:40:24;10.00;71.10
11140;DHT22;5624;49.388;11.350;2022-11-15T15:42:50;10.10;70.90
11140;DHT22;5624;49.388;11.350;2022-11-15T15:45:16;9.90;71.50
11140;DHT22;5624;49.388;11.350;2022-11-15T15:47:43;9.80;72.50
11140;DHT22;5624;49.388;11.350;2022-11-15T15:52:51;9.60;73.40
11140;DHT22;5624;49.388;11.350;2022-11-15T15:55:17;9.50;74.10
11140;DHT22;5624;49.388;11.350;2022-11-15T15:57:42;9.40;75.10
11140;DHT22;5624;49.388;11.350;2022-11-15T16:00:09;9.50;75.10
11140;DHT22;5624;49.388;11.350;2022-11-15T16:02:35;9.60;74.90
11140;DHT22;5624;49.388;11.350;2022-11-15T16:05:01;9.50;75.50
11140;DHT22;5624;49.388;11.350;2022-11-15T16:07:26;9.60;75.50
11140;DHT22;5624;49.388;11.350;2022-11-15T16:09:55;9.70;75.80
11140;DHT22;5624;49.388;11.350;2022-11-15T16:12:34;9.60;76.00
11140;DHT22;5624;49.388;11.350;2022-11-15T16:15:00;9.60;76.40
11140;DHT22;5624;49.388;11.350;2022-11-15T16:17:30;9.50;77.00
11140;DHT22;5624;49.388;11.350;2022-11-15T16:19:56;9.60;76.80
11140;DHT22;5624;49.388;11.350;2022-11-15T16:22:21;9.40;77.50
11140;DHT22;5624;49.388;11.350;2022-11-15T16:24:47;9.30;78.20
11140;DHT22;5624;49.388;11.350;2022-11-15T16:27:18;9.20;78.90
11140;DHT22;5624;49.388;11.350;2022-11-15T16:29:45;9.00;79.40
11140;DHT22;5624;49.388;11.350;2022-11-15T16:32:11;9.00;79.90
11140;DHT22;5624;49.388;11.350;2022-11-15T16:34:37;9.00;80.20
11140;DHT22;5624;49.388;11.350;2022-11-15T16:37:04;8.90;80.20
11140;DHT22;5624;49.388;11.350;2022-11-15T16:39:29;8.90;80.40
11140;DHT22;5624;49.388;11.350;2022-11-15T16:41:57;9.00;80.30
11140;DHT22;5624;49.388;11.350;2022-11-15T16:44:22;9.00;80.00
11140;DHT22;5624;49.388;11.350;2022-11-15T16:46:49;9.10;79.40
11140;DHT22;5624;49.388;11.350;2022-11-15T16:49:19;9.10;79.20
11140;DHT22;5624;49.388;11.350;2022-11-15T16:51:49;9.20;78.60
11140;DHT22;5624;49.388;11.350;2022-11-15T16:54:15;9.20;78.60
11140;DHT22;5624;49.388;11.350;2022-11-15T16:56:41;9.20;78.00
11140;DHT22;5624;49.388;11.350;2022-11-15T16:59:10;9.10;78.60
11140;DHT22;5624;49.388;11.350;2022-11-15T17:01:38;9.00;78.90
11140;DHT22;5624;49.388;11.350;2022-11-15T17:04:12;9.00;78.40
11140;DHT22;5624;49.388;11.350;2022-11-15T17:06:38;9.00;78.90
11140;DHT22;5624;49.388;11.350;2022-11-15T17:09:05;8.90;79.30
11140;DHT22;5624;49.388;11.350;2022-11-15T17:11:31;8.90;79.30
11140;DHT22;5624;49.388;11.350;2022-11-15T17:13:57;8.90;79.60
11140;DHT22;5624;49.388;11.350;2022-11-15T17:16:23;8.80;79.50
11140;DHT22;5624;49.388;11.350;2022-11-15T17:18:50;8.90;79.20
11140;DHT22;5624;49.388;11.350;2022-11-15T17:21:18;8.90;79.00
11140;DHT22;5624;49.388;11.350;2022-11-15T17:23:45;8.90;78.80
11140;DHT22;5624;49.388;11.350;2022-11-15T17:26:12;8.80;79.00
11140;DHT22;5624;49.388;11.350;2022-11-15T17:28:38;8.90;78.50
11140;DHT22;5624;49.388;11.350;2022-11-15T17:31:09;9.00;78.10
11140;DHT22;5624;49.388;11.350;2022-11-15T17:33:35;9.00;77.80
11140;DHT22;5624;49.388;11.350;2022-11-15T17:36:03;9.00;77.70
11140;DHT22;5624;49.388;11.350;2022-11-15T17:38:29;9.00;77.80
11140;DHT22;5624;49.388;11.350;2022-11-15T17:41:11;9.00;77.90
11140;DHT22;5624;49.388;11.350;2022-11-15T17:43:37;8.90;78.00
11140;DHT22;5624;49.388;11.350;2022-11-15T17:46:17;8.90;78.30
11140;DHT22;5624;49.388;11.350;2022-11-15T17:48:44;8.80;78.60
11140;DHT22;5624;49.388;11.350;2022-11-15T17:51:12;8.80;78.60
11140;DHT22;5624;49.388;11.350;2022-11-15T17:53:40;8.80;78.60
11140;DHT22;5624;49.388;11.350;2022-11-15T17:56:09;8.80;78.90
11140;DHT22;5624;49.388;11.350;2022-11-15T17:58:35;8.70;79.00
11140;DHT22;5624;49.388;11.350;2022-11-15T18:01:15;8.70;78.80